Time;durP1;ratioP1;P1;durP2;ratioP2;P2;SDS_P1;SDS_P2;PMS_P1;PMS_P2;Temp;Humidity;BMP_temperature;BMP_pressure;BME280_temperature;BME280_humidity;BME280_pressure;Samples;Min_cycle;Max_cycle;Signal;HPM_P1;HPM_P2
2021/05/09 00:00:20;;;;;;;61.85;50.28;;;;;;;;;;2089892;28;20104;-67
2021/05/09 00:01:21;;;;;;;62.10;49.60;;;;;;;;;;2089679;28;20036;-67
2021/05/09 00:02:25;;;;;;;62.67;50.63;;;;;;;;;;2089931;28;20387;-67
2021/05/09 00:03:25;;;;;;;62.45;49.45;;;;;;;;;;2089949;28;20044;-67
2021/05/09 00:04:26;;;;;;;59.28;48.13;;;;;;;;;;2089743;28;20516;-67
2021/05/09 00:05:26;;;;;;;57.00;48.13;;;;;;;;;;2089750;28;20516;-67
2021/05/09 00:06:27;;;;;;;60.33;48.60;;;;;;;;;;2089919;28;20476;-66
2021/05/09 00:07:27;;;;;;;59.55;48.15;;;;;;;;;;2089900;28;20037;-67
2021/05/09 00:08:27;;;;;;;59.85;48.03;;;;;;;;;;2089507;28;20025;-67
2021/05/09 00:09:28;;;;;;;59.35;47.00;;;;;;;;;;2089889;28;20032;-67
2021/05/09 00:10:28;;;;;;;57.42;46.63;;;;;;;;;;2089824;28;20032;-66
2021/05/09 00:11:28;;;;;;;59.90;48.10;;;;;;;;;;2089108;28;20108;-67
2021/05/09 00:12:29;;;;;;;56.20;47.00;;;;;;;;;;2089188;28;20025;-67
2021/05/09 00:13:29;;;;;;;55.22;45.33;;;;;;;;;;2089782;28;20283;-67
2021/05/09 00:14:29;;;;;;;56.05;45.85;;;;;;;;;;2089799;28;20103;-67
2021/05/09 00:15:30;;;;;;;54.10;45.30;;;;;;;;;;2089467;28;20033;-67
2021/05/09 00:16:32;;;;;;;53.95;44.03;;;;;;;;;;2089834;28;20040;-67
2021/05/09 00:17:32;;;;;;;52.50;43.70;;;;;;;;;;2089777;28;20108;-67
2021/05/09 00:18:33;;;;;;;55.78;44.00;;;;;;;;;;2089843;28;20622;-66
2021/05/09 00:19:33;;;;;;;54.17;44.13;;;;;;;;;;2088950;28;20500;-67
2021/05/09 00:20:33;;;;;;;52.30;43.17;;;;;;;;;;2089161;28;20488;-67
2021/05/09 00:21:34;;;;;;;53.50;43.50;;;;;;;;;;2089608;28;20041;-67
2021/05/09 00:22:34;;;;;;;53.28;42.60;;;;;;;;;;2089181;28;20163;-67
2021/05/09 00:23:35;;;;;;;52.47;42.55;;;;;;;;;;2089463;28;20024;-67
2021/05/09 00:24:35;;;;;;;49.88;40.95;;;;;;;;;;2089626;28;20502;-67
2021/05/09 00:25:36;;;;;;;50.33;41.67;;;;;;;;;;2089752;28;20060;-67
2021/05/09 00:26:36;;;;;;;49.72;42.13;;;;;;;;;;2089729;28;20431;-67
2021/05/09 00:27:36;;;;;;;51.05;41.40;;;;;;;;;;2089793;28;20037;-67
2021/05/09 00:28:37;;;;;;;48.22;40.05;;;;;;;;;;2089720;28;20068;-67
2021/05/09 00:29:37;;;;;;;50.97;40.97;;;;;;;;;;2089758;28;20040;-66
2021/05/09 00:30:38;;;;;;;51.00;40.55;;;;;;;;;;2089369;28;20098;-66
2021/05/09 00:31:38;;;;;;;48.90;39.70;;;;;;;;;;2089677;28;20439;-67
2021/05/09 00:32:38;;;;;;;49.90;40.30;;;;;;;;;;2089189;28;20032;-67
2021/05/09 00:33:39;;;;;;;47.83;39.40;;;;;;;;;;2089778;28;20435;-67
2021/05/09 00:34:39;;;;;;;45.97;39.03;;;;;;;;;;2089393;28;20129;-67
2021/05/09 00:35:40;;;;;;;45.00;39.00;;;;;;;;;;2083098;28;20064;-67
2021/05/09 00:36:40;;;;;;;45.33;38.50;;;;;;;;;;2089646;28;20114;-67
2021/05/09 00:37:40;;;;;;;45.65;38.40;;;;;;;;;;2089439;28;20432;-67
2021/05/09 00:38:41;;;;;;;45.53;38.20;;;;;;;;;;2089408;28;20442;-67
2021/05/09 00:39:41;;;;;;;43.40;37.03;;;;;;;;;;2088851;28;20049;-67
2021/05/09 00:40:42;;;;;;;43.25;36.10;;;;;;;;;;2088864;28;20045;-67
2021/05/09 00:41:42;;;;;;;44.60;36.65;;;;;;;;;;2089626;28;20033;-67
2021/05/09 00:42:43;;;;;;;44.33;37.53;;;;;;;;;;2089538;28;20544;-67
2021/05/09 00:43:43;;;;;;;46.75;37.58;;;;;;;;;;2088916;28;20119;-67
2021/05/09 00:44:43;;;;;;;44.17;36.67;;;;;;;;;;2088791;28;20035;-67
2021/05/09 00:45:44;;;;;;;43.10;35.75;;;;;;;;;;2089373;28;20212;-67
2021/05/09 00:46:44;;;;;;;39.03;34.10;;;;;;;;;;2097101;28;20036;-67
2021/05/09 00:47:44;;;;;;;42.05;34.85;;;;;;;;;;2088967;28;20029;-67
2021/05/09 00:48:45;;;;;;;41.88;35.20;;;;;;;;;;2080900;28;20037;-67
2021/05/09 00:49:45;;;;;;;39.05;33.83;;;;;;;;;;2083987;28;20033;-67
2021/05/09 00:50:46;;;;;;;40.15;33.90;;;;;;;;;;2089458;28;20028;-67
2021/05/09 00:51:50;;;;;;;40.17;34.08;;;;;;;;;;2088819;28;20055;-67
2021/05/09 00:52:51;;;;;;;42.50;34.40;;;;;;;;;;2088437;28;20068;-67
2021/05/09 00:53:51;;;;;;;40.95;33.88;;;;;;;;;;2089558;28;20083;-67
2021/05/09 00:55:01;;;;;;;40.03;34.50;;;;;;;;;;2089411;28;20056;-67
2021/05/09 00:56:03;;;;;;;39.03;32.25;;;;;;;;;;2088856;28;20079;-67
2021/05/09 00:57:04;;;;;;;38.65;33.25;;;;;;;;;;2088902;28;20463;-67
2021/05/09 00:58:10;;;;;;;37.15;31.88;;;;;;;;;;2089420;28;20146;-67
2021/05/09 00:59:11;;;;;;;36.63;31.98;;;;;;;;;;2089529;28;20419;-67
2021/05/09 01:00:12;;;;;;;37.47;32.17;;;;;;;;;;2088383;28;20025;-67
2021/05/09 01:01:13;;;;;;;38.47;32.47;;;;;;;;;;2088821;28;20021;-67
2021/05/09 01:02:14;;;;;;;38.72;32.38;;;;;;;;;;2088929;28;20041;-67
2021/05/09 01:03:15;;;;;;;36.05;31.70;;;;;;;;;;2088755;28;20025;-67
2021/05/09 01:04:16;;;;;;;36.83;31.27;;;;;;;;;;2088672;28;20078;-67
2021/05/09 01:05:16;;;;;;;35.40;30.63;;;;;;;;;;2086423;28;20538;-67
2021/05/09 01:06:17;;;;;;;36.35;30.40;;;;;;;;;;2080697;28;20021;-66
2021/05/09 01:07:17;;;;;;;35.20;30.20;;;;;;;;;;2086130;28;20025;-66
2021/05/09 01:08:18;;;;;;;36.13;30.25;;;;;;;;;;2088702;28;20424;-66
2021/05/09 01:09:18;;;;;;;34.53;30.70;;;;;;;;;;2088648;28;20468;-66
2021/05/09 01:10:19;;;;;;;36.67;30.13;;;;;;;;;;2088724;28;20538;-66
2021/05/09 01:11:19;;;;;;;33.35;28.67;;;;;;;;;;2088493;28;20076;-66
2021/05/09 01:12:20;;;;;;;32.33;28.80;;;;;;;;;;2088580;28;20139;-67
2021/05/09 01:13:21;;;;;;;34.90;28.88;;;;;;;;;;2088722;28;20021;-66
2021/05/09 01:14:23;;;;;;;32.22;28.13;;;;;;;;;;2089440;28;20504;-66
2021/05/09 01:15:24;;;;;;;33.28;28.98;;;;;;;;;;2088263;28;20100;-66
2021/05/09 01:16:24;;;;;;;32.13;28.52;;;;;;;;;;2088666;28;20028;-66
2021/05/09 01:17:25;;;;;;;32.75;28.48;;;;;;;;;;2088548;28;20037;-66
2021/05/09 01:18:26;;;;;;;31.77;27.27;;;;;;;;;;2088524;28;20047;-66
2021/05/09 01:19:26;;;;;;;32.80;27.67;;;;;;;;;;2089427;28;20052;-66
2021/05/09 01:20:30;;;;;;;29.83;26.58;;;;;;;;;;2089086;28;20131;-66
2021/05/09 01:21:31;;;;;;;32.42;27.45;;;;;;;;;;2088632;28;20036;-66
2021/05/09 01:22:31;;;;;;;30.88;27.00;;;;;;;;;;2088323;28;20096;-66
2021/05/09 01:23:31;;;;;;;28.95;25.58;;;;;;;;;;2089443;28;20703;-66
2021/05/09 01:24:32;;;;;;;30.10;26.38;;;;;;;;;;2089177;28;20032;-66
2021/05/09 01:25:33;;;;;;;30.65;26.27;;;;;;;;;;2088593;28;20025;-66
2021/05/09 01:26:33;;;;;;;28.67;25.48;;;;;;;;;;2088529;28;20033;-66
2021/05/09 01:27:35;;;;;;;29.58;26.02;;;;;;;;;;2088725;28;20731;-66
2021/05/09 01:28:36;;;;;;;29.58;26.08;;;;;;;;;;2096875;28;20064;-66
2021/05/09 01:29:36;;;;;;;30.13;25.58;;;;;;;;;;2088304;28;20039;-66
2021/05/09 01:30:37;;;;;;;28.42;25.33;;;;;;;;;;2088328;28;20025;-67
2021/05/09 01:31:38;;;;;;;29.42;25.95;;;;;;;;;;2088653;28;20044;-66
2021/05/09 01:32:39;;;;;;;28.52;25.20;;;;;;;;;;2088495;28;20480;-66
2021/05/09 01:33:39;;;;;;;29.05;25.13;;;;;;;;;;2088549;28;20476;-66
2021/05/09 01:34:39;;;;;;;28.52;25.25;;;;;;;;;;2072169;28;20030;-66
2021/05/09 01:35:40;;;;;;;27.35;23.80;;;;;;;;;;2074545;28;20088;-66
2021/05/09 01:36:40;;;;;;;27.25;23.90;;;;;;;;;;2088461;28;20021;-67
2021/05/09 01:37:41;;;;;;;27.73;23.40;;;;;;;;;;2088206;28;20056;-67
2021/05/09 01:38:41;;;;;;;28.77;23.70;;;;;;;;;;2088584;28;20512;-67
2021/05/09 01:39:42;;;;;;;26.42;23.60;;;;;;;;;;2089095;28;20504;-67
2021/05/09 01:40:42;;;;;;;26.58;23.05;;;;;;;;;;2088515;28;20045;-67
2021/05/09 01:41:43;;;;;;;25.17;22.48;;;;;;;;;;2088396;28;20125;-67
2021/05/09 01:42:43;;;;;;;29.45;23.77;;;;;;;;;;2096720;28;20475;-67
2021/05/09 01:43:44;;;;;;;26.33;23.13;;;;;;;;;;2088734;28;20460;-67
2021/05/09 01:44:51;;;;;;;25.52;22.60;;;;;;;;;;2087647;28;20064;-67
2021/05/09 01:45:52;;;;;;;24.52;21.83;;;;;;;;;;2088556;28;20456;-67
2021/05/09 01:46:52;;;;;;;25.33;21.88;;;;;;;;;;2088415;28;20071;-67
2021/05/09 01:47:53;;;;;;;25.63;22.02;;;;;;;;;;2088675;28;20409;-67
2021/05/09 01:48:53;;;;;;;23.80;21.30;;;;;;;;;;2089107;28;20499;-66
2021/05/09 01:49:54;;;;;;;24.85;21.88;;;;;;;;;;2088904;28;20480;-67
2021/05/09 01:50:55;;;;;;;24.48;21.75;;;;;;;;;;2089067;28;20040;-67
2021/05/09 01:51:56;;;;;;;23.63;21.02;;;;;;;;;;2088916;28;20452;-66
2021/05/09 01:52:59;;;;;;;24.10;21.50;;;;;;;;;;2089128;28;20511;-67
2021/05/09 01:53:59;;;;;;;22.52;20.23;;;;;;;;;;2089187;28;20055;-67
2021/05/09 01:55:00;;;;;;;24.85;22.05;;;;;;;;;;2089104;28;20028;-67
2021/05/09 01:56:01;;;;;;;24.33;21.65;;;;;;;;;;2089089;28;20387;-67
2021/05/09 01:57:07;;;;;;;22.35;19.95;;;;;;;;;;2089124;28;20388;-67
2021/05/09 01:58:12;;;;;;;22.45;20.05;;;;;;;;;;2085494;28;20384;-67
2021/05/09 01:59:25;;;;;;;22.98;20.48;;;;;;;;;;2081798;28;20128;-67
2021/05/09 02:00:26;;;;;;;22.83;20.40;;;;;;;;;;2088228;28;20018;-69
2021/05/09 02:01:37;;;;;;;22.15;19.77;;;;;;;;;;2088306;28;20029;-67
2021/05/09 02:02:55;;;;;;;21.52;19.20;;;;;;;;;;2082575;28;20116;-67
2021/05/09 02:04:02;;;;;;;21.15;18.88;;;;;;;;;;2088406;28;20049;-67
2021/05/09 02:05:06;;;;;;;22.25;19.83;;;;;;;;;;2080282;28;20452;-68
2021/05/09 02:06:07;;;;;;;21.20;18.98;;;;;;;;;;2088265;28;20166;-67
2021/05/09 02:07:07;;;;;;;21.85;18.55;;;;;;;;;;2096533;28;20430;-66
2021/05/09 02:08:08;;;;;;;21.27;19.05;;;;;;;;;;2088932;28;20029;-66
2021/05/09 02:09:13;;;;;;;19.90;17.77;;;;;;;;;;2088425;28;20082;-66
2021/05/09 02:10:16;;;;;;;23.05;18.75;;;;;;;;;;2088319;28;20036;-66
2021/05/09 02:11:18;;;;;;;20.58;18.42;;;;;;;;;;2088436;28;20029;-66
2021/05/09 02:12:20;;;;;;;20.90;18.63;;;;;;;;;;2080087;28;20026;-66
2021/05/09 02:13:32;;;;;;;19.95;17.85;;;;;;;;;;2083276;28;20099;-66
2021/05/09 02:14:43;;;;;;;21.52;18.30;;;;;;;;;;2087953;28;20518;-66
2021/05/09 02:15:45;;;;;;;19.58;17.33;;;;;;;;;;2088492;28;20096;-67
2021/05/09 02:16:46;;;;;;;21.33;18.17;;;;;;;;;;2088285;28;20799;-67
2021/05/09 02:17:49;;;;;;;19.00;16.98;;;;;;;;;;2088344;28;20455;-67
2021/05/09 02:18:54;;;;;;;21.42;18.08;;;;;;;;;;2088315;28;20037;-66
2021/05/09 02:20:02;;;;;;;20.58;17.33;;;;;;;;;;2088809;28;20095;-67
2021/05/09 02:21:06;;;;;;;18.33;16.45;;;;;;;;;;2088419;28;20036;-68
2021/05/09 02:22:06;;;;;;;18.10;16.20;;;;;;;;;;2087680;28;20162;-68
2021/05/09 02:23:08;;;;;;;18.88;16.75;;;;;;;;;;2088403;28;20520;-68
2021/05/09 02:24:08;;;;;;;18.88;16.88;;;;;;;;;;2088883;28;20138;-68
2021/05/09 02:25:09;;;;;;;19.38;17.08;;;;;;;;;;2089092;28;20029;-68
2021/05/09 02:26:11;;;;;;;18.40;16.40;;;;;;;;;;2088159;28;20032;-68
2021/05/09 02:27:12;;;;;;;18.20;16.30;;;;;;;;;;2088456;28;20017;-68
2021/05/09 02:28:13;;;;;;;19.00;16.88;;;;;;;;;;2096675;28;20444;-68
2021/05/09 02:29:14;;;;;;;18.45;16.55;;;;;;;;;;2088049;28;20029;-68
2021/05/09 02:30:16;;;;;;;18.38;16.48;;;;;;;;;;2088205;28;20021;-68
2021/05/09 02:31:17;;;;;;;17.75;15.45;;;;;;;;;;2095577;28;20554;-68
2021/05/09 02:32:18;;;;;;;18.88;16.40;;;;;;;;;;2096609;28;20104;-68
2021/05/09 02:33:18;;;;;;;17.20;15.45;;;;;;;;;;2086038;28;20017;-68
2021/05/09 02:34:20;;;;;;;18.38;15.75;;;;;;;;;;2088214;28;20119;-68
2021/05/09 02:35:20;;;;;;;18.02;16.13;;;;;;;;;;2088133;28;20041;-68
2021/05/09 02:36:21;;;;;;;18.88;16.08;;;;;;;;;;2088609;28;20028;-68
2021/05/09 02:37:21;;;;;;;17.35;15.52;;;;;;;;;;2089008;28;20468;-68
2021/05/09 02:38:21;;;;;;;17.90;15.95;;;;;;;;;;2089013;28;20025;-68
2021/05/09 02:39:23;;;;;;;17.40;15.60;;;;;;;;;;2088803;28;20424;-68
2021/05/09 02:40:24;;;;;;;17.73;15.93;;;;;;;;;;2088887;28;20060;-68
2021/05/09 02:41:24;;;;;;;17.75;15.95;;;;;;;;;;2088998;28;20060;-68
2021/05/09 02:42:24;;;;;;;16.48;14.77;;;;;;;;;;2088288;28;20032;-67
2021/05/09 02:43:26;;;;;;;17.05;15.25;;;;;;;;;;2088195;28;20530;-68
2021/05/09 02:44:26;;;;;;;17.88;15.98;;;;;;;;;;2088016;28;20033;-68
2021/05/09 02:45:26;;;;;;;16.73;15.02;;;;;;;;;;2088302;28;20051;-67
2021/05/09 02:46:27;;;;;;;16.33;14.48;;;;;;;;;;2088261;28;20029;-68
2021/05/09 02:47:28;;;;;;;16.70;14.90;;;;;;;;;;2096602;28;20041;-67
2021/05/09 02:48:30;;;;;;;17.08;15.07;;;;;;;;;;2088002;28;20036;-68
2021/05/09 02:49:31;;;;;;;16.42;14.73;;;;;;;;;;2081838;28;20124;-68
2021/05/09 02:50:34;;;;;;;16.50;14.80;;;;;;;;;;2088038;28;20041;-68
2021/05/09 02:51:34;;;;;;;16.40;14.68;;;;;;;;;;2087952;28;20060;-68
2021/05/09 02:52:35;;;;;;;16.10;14.45;;;;;;;;;;2088182;28;20040;-68
2021/05/09 02:53:36;;;;;;;16.38;14.73;;;;;;;;;;2088202;28;20071;-68
2021/05/09 02:54:36;;;;;;;30.55;14.30;;;;;;;;;;2088151;28;20029;-66
2021/05/09 02:55:37;;;;;;;16.50;14.85;;;;;;;;;;2089114;28;20598;-66
2021/05/09 02:56:37;;;;;;;17.88;14.18;;;;;;;;;;2090422;28;20033;-67
2021/05/09 02:57:38;;;;;;;12.57;11.32;;;;;;;;;;2090398;28;20017;-67
2021/05/09 02:58:39;;;;;;;13.38;11.27;;;;;;;;;;2090120;28;20369;-67
2021/05/09 02:59:39;;;;;;;14.00;11.15;;;;;;;;;;2089641;28;20136;-65
2021/05/09 03:00:40;;;;;;;13.43;11.32;;;;;;;;;;2089784;28;20027;-67
2021/05/09 03:01:44;;;;;;;12.85;11.23;;;;;;;;;;2089711;28;20480;-68
2021/05/09 03:02:44;;;;;;;12.52;11.23;;;;;;;;;;2090575;28;20128;-67
2021/05/09 03:03:50;;;;;;;13.93;11.48;;;;;;;;;;2090494;28;20028;-67
2021/05/09 03:04:51;;;;;;;13.18;11.77;;;;;;;;;;2089511;28;20037;-67
2021/05/09 03:05:51;;;;;;;13.77;11.25;;;;;;;;;;2089296;28;20025;-67
2021/05/09 03:06:53;;;;;;;11.73;10.40;;;;;;;;;;2089672;28;20091;-67
2021/05/09 03:07:54;;;;;;;13.32;10.85;;;;;;;;;;2089685;28;20476;-67
2021/05/09 03:08:55;;;;;;;12.05;10.65;;;;;;;;;;2090440;28;20140;-67
2021/05/09 03:09:56;;;;;;;12.48;11.02;;;;;;;;;;2097862;28;20097;-68
2021/05/09 03:10:56;;;;;;;12.68;11.10;;;;;;;;;;2098038;28;20017;-68
2021/05/09 03:11:57;;;;;;;12.82;10.65;;;;;;;;;;2085652;28;20106;-68
2021/05/09 03:12:57;;;;;;;12.45;10.70;;;;;;;;;;2081361;28;20053;-69
2021/05/09 03:13:58;;;;;;;12.55;10.50;;;;;;;;;;2089408;28;20035;-68
2021/05/09 03:14:58;;;;;;;14.05;10.93;;;;;;;;;;2090235;28;20087;-68
2021/05/09 03:15:59;;;;;;;11.82;10.55;;;;;;;;;;2090392;28;20032;-68
2021/05/09 03:17:00;;;;;;;12.02;10.20;;;;;;;;;;2090164;28;20033;-69
2021/05/09 03:18:00;;;;;;;11.52;10.32;;;;;;;;;;2090465;28;20037;-68
2021/05/09 03:19:00;;;;;;;11.85;9.77;;;;;;;;;;2089456;28;20120;-68
2021/05/09 03:20:01;;;;;;;11.38;10.07;;;;;;;;;;2089663;28;20399;-68
2021/05/09 03:21:01;;;;;;;11.95;10.27;;;;;;;;;;2090042;28;20029;-68
2021/05/09 03:22:02;;;;;;;11.00;9.90;;;;;;;;;;2090409;28;20079;-68
2021/05/09 03:23:05;;;;;;;12.23;10.10;;;;;;;;;;2090256;28;20021;-68
2021/05/09 03:24:05;;;;;;;12.68;10.40;;;;;;;;;;2090328;28;20045;-68
2021/05/09 03:25:06;;;;;;;11.35;9.68;;;;;;;;;;2090248;28;20063;-68
2021/05/09 03:26:07;;;;;;;10.82;9.65;;;;;;;;;;2090277;28;20423;-68
2021/05/09 03:27:07;;;;;;;10.20;9.13;;;;;;;;;;2090114;28;20108;-68
2021/05/09 03:28:07;;;;;;;10.90;9.80;;;;;;;;;;2089868;28;20033;-68
2021/05/09 03:29:08;;;;;;;10.82;9.63;;;;;;;;;;2097850;28;20052;-67
2021/05/09 03:30:08;;;;;;;10.90;9.70;;;;;;;;;;2097924;28;20104;-68
2021/05/09 03:31:09;;;;;;;11.77;10.40;;;;;;;;;;2090172;28;20502;-68
2021/05/09 03:32:09;;;;;;;10.52;9.43;;;;;;;;;;2090198;28;20525;-67
2021/05/09 03:33:10;;;;;;;10.43;9.30;;;;;;;;;;2090270;28;20119;-67
2021/05/09 03:34:10;;;;;;;10.18;9.18;;;;;;;;;;2090167;28;20380;-68
2021/05/09 03:35:11;;;;;;;10.63;9.15;;;;;;;;;;2089983;28;20535;-67
2021/05/09 03:36:11;;;;;;;10.45;9.30;;;;;;;;;;2089809;28;20033;-68
2021/05/09 03:37:12;;;;;;;10.13;9.13;;;;;;;;;;2089257;28;20056;-68
2021/05/09 03:38:12;;;;;;;10.80;9.70;;;;;;;;;;2089501;28;20053;-67
2021/05/09 03:39:13;;;;;;;10.93;9.23;;;;;;;;;;2090085;28;20040;-67
2021/05/09 03:40:15;;;;;;;11.25;9.07;;;;;;;;;;2090076;28;20063;-68
2021/05/09 03:41:16;;;;;;;10.07;8.98;;;;;;;;;;2090228;28;20549;-67
2021/05/09 03:42:16;;;;;;;10.50;9.40;;;;;;;;;;2090150;28;20391;-67
2021/05/09 03:43:17;;;;;;;10.77;9.32;;;;;;;;;;2089775;28;20033;-68
2021/05/09 03:44:17;;;;;;;10.10;9.07;;;;;;;;;;2090183;28;20052;-68
2021/05/09 03:45:17;;;;;;;9.82;8.80;;;;;;;;;;2090084;28;20522;-68
2021/05/09 03:46:18;;;;;;;10.63;9.52;;;;;;;;;;2089987;28;20112;-67
2021/05/09 03:47:25;;;;;;;11.23;9.13;;;;;;;;;;2090097;28;20048;-68
2021/05/09 03:48:26;;;;;;;9.70;8.70;;;;;;;;;;2090042;28;20033;-68
2021/05/09 03:49:26;;;;;;;9.57;8.45;;;;;;;;;;2090126;28;20032;-67
2021/05/09 03:50:26;;;;;;;10.15;8.30;;;;;;;;;;2089571;28;20032;-68
2021/05/09 03:51:27;;;;;;;9.95;8.70;;;;;;;;;;2090203;28;20041;-68
2021/05/09 03:52:27;;;;;;;9.15;8.15;;;;;;;;;;2089974;28;20033;-68
2021/05/09 03:53:29;;;;;;;9.73;8.73;;;;;;;;;;2090063;28;20414;-66
2021/05/09 03:54:30;;;;;;;9.55;8.45;;;;;;;;;;2089983;28;20033;-67
2021/05/09 03:55:30;;;;;;;9.43;8.25;;;;;;;;;;2090135;28;20380;-66
2021/05/09 03:56:30;;;;;;;9.65;8.43;;;;;;;;;;2089993;28;20043;-67
2021/05/09 03:57:31;;;;;;;9.60;8.43;;;;;;;;;;2088852;28;20033;-67
2021/05/09 03:58:31;;;;;;;8.93;8.02;;;;;;;;;;2089297;28;20029;-67
2021/05/09 03:59:31;;;;;;;9.60;8.48;;;;;;;;;;2090165;28;20029;-67
2021/05/09 04:00:32;;;;;;;10.80;8.25;;;;;;;;;;2090047;28;20594;-67
2021/05/09 04:01:32;;;;;;;10.18;8.40;;;;;;;;;;2090193;28;20387;-66
2021/05/09 04:02:32;;;;;;;9.00;8.10;;;;;;;;;;2089924;28;20476;-66
2021/05/09 04:03:33;;;;;;;9.02;8.07;;;;;;;;;;2090071;28;20400;-66
2021/05/09 04:04:33;;;;;;;8.98;8.05;;;;;;;;;;2089685;28;20033;-66
2021/05/09 04:05:33;;;;;;;8.65;7.75;;;;;;;;;;2089678;28;20098;-66
2021/05/09 04:06:34;;;;;;;8.68;7.78;;;;;;;;;;2089472;28;20041;-67
2021/05/09 04:07:34;;;;;;;9.15;7.65;;;;;;;;;;2089249;28;20074;-67
2021/05/09 04:08:34;;;;;;;8.15;7.35;;;;;;;;;;2097435;28;20032;-66
2021/05/09 04:09:35;;;;;;;8.60;7.70;;;;;;;;;;2097682;28;20151;-66
2021/05/09 04:10:35;;;;;;;8.30;7.10;;;;;;;;;;2089733;28;20120;-66
2021/05/09 04:11:35;;;;;;;9.02;8.13;;;;;;;;;;2090123;28;20029;-66
2021/05/09 04:12:36;;;;;;;8.32;7.32;;;;;;;;;;2089588;28;20170;-66
2021/05/09 04:13:49;;;;;;;8.85;7.57;;;;;;;;;;2089843;28;20020;-67
2021/05/09 04:14:49;;;;;;;8.48;7.55;;;;;;;;;;2089727;28;20031;-68
2021/05/09 04:15:50;;;;;;;8.95;7.15;;;;;;;;;;2089971;28;20037;-67
2021/05/09 04:16:50;;;;;;;9.05;7.13;;;;;;;;;;2089894;28;20380;-67
2021/05/09 04:17:50;;;;;;;7.75;6.95;;;;;;;;;;2089870;28;20021;-66
2021/05/09 04:18:51;;;;;;;7.65;6.68;;;;;;;;;;2089771;28;20504;-67
2021/05/09 04:19:51;;;;;;;8.60;7.43;;;;;;;;;;2089426;28;20533;-67
2021/05/09 04:20:51;;;;;;;7.72;6.93;;;;;;;;;;2089787;28;20120;-66
2021/05/09 04:21:52;;;;;;;9.23;7.43;;;;;;;;;;2089935;28;20037;-67
2021/05/09 04:22:52;;;;;;;7.85;7.03;;;;;;;;;;2089479;28;20037;-66
2021/05/09 04:23:52;;;;;;;8.07;6.85;;;;;;;;;;2089789;28;20112;-66
2021/05/09 04:24:53;;;;;;;8.30;6.80;;;;;;;;;;2089839;28;20120;-66
2021/05/09 04:25:53;;;;;;;7.65;6.78;;;;;;;;;;2089783;28;20520;-66
2021/05/09 04:26:54;;;;;;;9.27;7.50;;;;;;;;;;2089756;28;20124;-66
2021/05/09 04:27:54;;;;;;;7.85;6.78;;;;;;;;;;2089346;28;20044;-66
2021/05/09 04:28:54;;;;;;;7.75;6.95;;;;;;;;;;2089744;28;20040;-66
2021/05/09 04:29:54;;;;;;;7.57;6.78;;;;;;;;;;2089806;28;20112;-66
2021/05/09 04:30:55;;;;;;;7.65;6.78;;;;;;;;;;2089764;28;20060;-66
2021/05/09 04:31:55;;;;;;;6.82;6.13;;;;;;;;;;2089761;28;20086;-66
2021/05/09 04:32:56;;;;;;;7.50;6.38;;;;;;;;;;2089698;28;20037;-66
2021/05/09 04:33:57;;;;;;;7.50;6.70;;;;;;;;;;2089710;28;20036;-66
2021/05/09 04:34:57;;;;;;;7.53;6.68;;;;;;;;;;2088459;28;20037;-66
2021/05/09 04:35:57;;;;;;;7.20;6.50;;;;;;;;;;2089089;28;20025;-67
2021/05/09 04:36:57;;;;;;;6.85;6.07;;;;;;;;;;2089671;28;20057;-67
2021/05/09 04:37:58;;;;;;;6.97;6.25;;;;;;;;;;2089688;28;20492;-68
2021/05/09 04:38:59;;;;;;;6.95;5.70;;;;;;;;;;2089802;28;20029;-68
2021/05/09 04:39:59;;;;;;;6.80;6.10;;;;;;;;;;2089558;28;20051;-68
2021/05/09 04:40:59;;;;;;;6.55;5.85;;;;;;;;;;2089618;28;20107;-68
2021/05/09 04:42:00;;;;;;;7.50;6.00;;;;;;;;;;2089290;28;20029;-68
2021/05/09 04:43:07;;;;;;;7.40;5.93;;;;;;;;;;2089721;28;20390;-68
2021/05/09 04:44:07;;;;;;;8.93;6.00;;;;;;;;;;2089578;28;20448;-67
2021/05/09 04:45:08;;;;;;;6.85;5.82;;;;;;;;;;2089559;28;20083;-68
2021/05/09 04:46:08;;;;;;;9.77;5.85;;;;;;;;;;2089564;28;20025;-68
2021/05/09 04:47:08;;;;;;;7.15;5.50;;;;;;;;;;2089663;28;20479;-68
2021/05/09 04:48:09;;;;;;;6.57;5.50;;;;;;;;;;2089452;28;20613;-68
2021/05/09 04:49:09;;;;;;;6.38;5.78;;;;;;;;;;2089579;28;20029;-68
2021/05/09 04:50:10;;;;;;;8.52;5.85;;;;;;;;;;2088291;28;20021;-68
2021/05/09 04:51:11;;;;;;;6.75;5.40;;;;;;;;;;2089077;28;20021;-67
2021/05/09 04:52:11;;;;;;;6.30;5.57;;;;;;;;;;2089549;28;20424;-68
2021/05/09 04:53:28;;;;;;;6.97;5.80;;;;;;;;;;2089667;28;20096;-67
2021/05/09 04:54:28;;;;;;;6.45;5.32;;;;;;;;;;2089545;28;20024;-66
2021/05/09 04:55:29;;;;;;;6.68;5.53;;;;;;;;;;2089743;28;20044;-67
2021/05/09 04:56:29;;;;;;;6.50;5.85;;;;;;;;;;2089490;28;20031;-67
2021/05/09 04:57:31;;;;;;;6.10;5.20;;;;;;;;;;2089188;28;20040;-67
2021/05/09 04:58:31;;;;;;;7.82;5.45;;;;;;;;;;2089150;28;20507;-68
2021/05/09 04:59:32;;;;;;;6.00;5.38;;;;;;;;;;2089748;28;20025;-68
2021/05/09 05:00:32;;;;;;;6.38;4.38;;;;;;;;;;2089437;28;20053;-67
2021/05/09 05:01:32;;;;;;;6.72;4.50;;;;;;;;;;2089557;28;20037;-67
2021/05/09 05:02:33;;;;;;;6.97;3.83;;;;;;;;;;2089497;28;20021;-68
2021/05/09 05:03:33;;;;;;;4.18;3.40;;;;;;;;;;2079832;28;20643;-67
2021/05/09 05:04:34;;;;;;;4.75;3.60;;;;;;;;;;2087712;28;20052;-67
2021/05/09 05:05:34;;;;;;;4.10;3.05;;;;;;;;;;2087342;28;20041;-67
2021/05/09 05:06:35;;;;;;;5.05;2.97;;;;;;;;;;2087522;28;20143;-67
2021/05/09 05:07:35;;;;;;;4.82;3.20;;;;;;;;;;2087354;28;20119;-67
2021/05/09 05:08:35;;;;;;;4.13;3.33;;;;;;;;;;2085295;28;20028;-67
2021/05/09 05:09:38;;;;;;;3.53;2.90;;;;;;;;;;2087391;28;20052;-67
2021/05/09 05:10:39;;;;;;;3.75;3.05;;;;;;;;;;2088970;28;20067;-67
2021/05/09 05:11:39;;;;;;;4.60;3.08;;;;;;;;;;2089194;28;20082;-67
2021/05/09 05:12:39;;;;;;;4.45;2.70;;;;;;;;;;2089393;28;20455;-67
2021/05/09 05:13:40;;;;;;;4.22;2.70;;;;;;;;;;2088589;28;20094;-67
2021/05/09 05:14:40;;;;;;;4.70;2.97;;;;;;;;;;2088802;28;20022;-67
2021/05/09 05:15:40;;;;;;;3.55;2.80;;;;;;;;;;2089282;28;20479;-68
2021/05/09 05:16:41;;;;;;;5.22;3.50;;;;;;;;;;2089402;28;20051;-67
2021/05/09 05:17:41;;;;;;;3.17;2.60;;;;;;;;;;2089323;28;20156;-68
2021/05/09 05:18:41;;;;;;;3.25;2.42;;;;;;;;;;2088467;28;20029;-67
2021/05/09 05:19:42;;;;;;;2.55;2.33;;;;;;;;;;2089125;28;20142;-67
2021/05/09 05:20:42;;;;;;;2.65;2.03;;;;;;;;;;2089442;28;20021;-67
2021/05/09 05:21:43;;;;;;;3.13;2.22;;;;;;;;;;2089351;28;20021;-67
2021/05/09 05:22:43;;;;;;;2.88;1.83;;;;;;;;;;2089370;28;20037;-66
2021/05/09 05:23:44;;;;;;;4.60;2.42;;;;;;;;;;2089216;28;20068;-66
2021/05/09 05:24:44;;;;;;;3.47;2.25;;;;;;;;;;2089281;28;20476;-67
2021/05/09 05:25:45;;;;;;;2.80;2.03;;;;;;;;;;2088730;28;20112;-66
2021/05/09 05:26:45;;;;;;;2.20;1.70;;;;;;;;;;2089376;28;20025;-67
2021/05/09 05:27:45;;;;;;;2.20;2.00;;;;;;;;;;2089205;28;20029;-66
2021/05/09 05:28:46;;;;;;;3.80;2.00;;;;;;;;;;2089121;28;20400;-66
2021/05/09 05:29:46;;;;;;;3.05;1.63;;;;;;;;;;2089204;28;20514;-67
2021/05/09 05:30:46;;;;;;;2.65;1.73;;;;;;;;;;2096975;28;20070;-66
2021/05/09 05:31:49;;;;;;;3.10;1.80;;;;;;;;;;2096835;28;20033;-69
2021/05/09 05:32:49;;;;;;;3.22;2.15;;;;;;;;;;2086451;28;20040;-68
2021/05/09 05:33:49;;;;;;;3.40;1.45;;;;;;;;;;2087678;28;20092;-67
2021/05/09 05:34:50;;;;;;;2.40;2.15;;;;;;;;;;2087600;28;20048;-68
2021/05/09 05:35:50;;;;;;;3.42;2.25;;;;;;;;;;2087630;28;20021;-68
2021/05/09 05:36:51;;;;;;;2.97;2.03;;;;;;;;;;2087748;28;20454;-68
2021/05/09 05:37:55;;;;;;;2.90;2.30;;;;;;;;;;2087365;28;20063;-68
2021/05/09 05:38:55;;;;;;;3.42;2.22;;;;;;;;;;2087150;28;20024;-67
2021/05/09 05:39:55;;;;;;;7.47;2.00;;;;;;;;;;2084381;28;20069;-66
2021/05/09 05:40:56;;;;;;;3.13;2.00;;;;;;;;;;2087864;28;20029;-67
2021/05/09 05:41:58;;;;;;;3.05;2.08;;;;;;;;;;2089267;28;20384;-67
2021/05/09 05:42:58;;;;;;;2.92;2.10;;;;;;;;;;2089276;28;20029;-67
2021/05/09 05:43:58;;;;;;;3.95;2.13;;;;;;;;;;2089327;28;20602;-64
2021/05/09 05:44:59;;;;;;;3.67;2.10;;;;;;;;;;2089033;28;20716;-66
2021/05/09 05:46:00;;;;;;;5.63;2.13;;;;;;;;;;2089225;28;20384;-66
2021/05/09 05:47:00;;;;;;;5.47;2.20;;;;;;;;;;2089167;28;20124;-66
2021/05/09 05:48:00;;;;;;;3.83;2.20;;;;;;;;;;2088714;28;20025;-68
2021/05/09 05:49:01;;;;;;;2.72;2.00;;;;;;;;;;2088813;28;20056;-68
2021/05/09 05:50:02;;;;;;;2.90;2.00;;;;;;;;;;2088895;28;20024;-66
2021/05/09 05:51:02;;;;;;;2.60;2.20;;;;;;;;;;2088465;28;20483;-67
2021/05/09 05:52:03;;;;;;;3.63;2.67;;;;;;;;;;2088470;28;20075;-67
2021/05/09 05:53:03;;;;;;;2.67;2.20;;;;;;;;;;2089161;28;20036;-67
2021/05/09 05:54:03;;;;;;;3.13;2.17;;;;;;;;;;2088989;28;20272;-69
2021/05/09 05:55:04;;;;;;;2.85;2.20;;;;;;;;;;2088657;28;20029;-70
2021/05/09 05:56:05;;;;;;;4.47;2.20;;;;;;;;;;2089071;28;20499;-70
2021/05/09 05:57:05;;;;;;;3.83;2.50;;;;;;;;;;2089243;28;20028;-70
2021/05/09 05:58:06;;;;;;;6.20;2.40;;;;;;;;;;2096820;28;20032;-70
2021/05/09 05:59:06;;;;;;;3.08;2.00;;;;;;;;;;2096325;28;20037;-69
2021/05/09 06:00:06;;;;;;;4.13;2.53;;;;;;;;;;2089164;28;20037;-69